Airfield :
LOGIN :

Register | Disclaimer

   EN    FR    IT 

 










Legend :    VFR   Marginal VFR   IFR   Intensive IFR   Very Intensive IFR
Visi :
Ceiling :
>= 8 km
>= 3000ft
5 to 8 km
1000 to 3000 ft
1500m to 5 km
500 to 1000 ft
800 to 1500m
200 to 500 ft
< 800m
< 200 ft
Symbols :   Thunderstorms  Fog  Heavy snow  Heavy precipitations  Wind > 20 kt
SIGMETs :     Misc.  Thunderstorms  Icing  Turbulence  Mountain Waves  Volcanic Ashes






- Airport Elevation : 70 ft
- IATA code : LEI


LEAM - Almeria

CURRENT METAR :
  • 300400Z 33004KT 290V360 CAVOK 12/10 Q1022

EXPIRED METARs :
  • 300330Z 35003KT CAVOK 12/10 Q1022
  • 300300Z 33004KT CAVOK 12/11 Q1022
  • 300230Z AUTO 36003KT CAVOK 13/11 Q1023
  • 300200Z AUTO 36003KT CAVOK 13/11 Q1023
  • 300130Z AUTO VRB02KT CAVOK 13/11 Q1023
  • 300100Z AUTO 35004KT CAVOK 13/12 Q1023

TAF TAF LEAM
Valid from the 30 at 00:00 until the 31 at 00:00 UTC


292300Z 3000/3024 VRB02KT CAVOK TX27/3014Z TN13/3005Z
BECMG 3008/3010 24010KT
BECMG 3019/3021 VRB02KT
PROB40
TEMPO 3021/3024 3000 BR BKN010



MET'MAP, your aeronautical weather chart ! - Copyright ORBIFLY December 2007 - Disclaimer

ORBIFLY MET'MAP TEAM :

Programming & Development : Alexandra Zaïnal
Original concept : Baudouin d'Aumeries
Technical & hardware support : Manuel Goepfert
Assistance : Marc-Olivier Méhu




SOURCES & CREDITS :

   NOAA